Time;durP1;ratioP1;P1;durP2;ratioP2;P2;SDS_P1;SDS_P2;PMS_P1;PMS_P2;Temp;Humidity;BMP_temperature;BMP_pressure;BME280_temperature;BME280_humidity;BME280_pressure;Samples;Min_cycle;Max_cycle;Signal;HPM_P1;HPM_P2
2021/07/08 00:02:53;;;;;;;7.57;3.13;;;;;;;20.34;68.51;98284.94;8413406;28;20532;-70
2021/07/08 00:06:57;;;;;;;6.17;3.23;;;;;;;20.34;68.83;98284.94;8414364;28;20396;-70
2021/07/08 00:11:01;;;;;;;5.13;2.90;;;;;;;20.53;67.91;98292.19;8413779;28;20207;-70
2021/07/08 00:15:06;;;;;;;4.07;2.97;;;;;;;20.37;68.77;98279.44;8413573;28;20209;-69
2021/07/08 00:19:09;;;;;;;5.17;3.17;;;;;;;20.28;69.25;98278.38;8414115;28;20213;-69
2021/07/08 00:23:12;;;;;;;7.30;3.27;;;;;;;20.14;69.32;98278.59;8414378;28;20227;-69
2021/07/08 00:27:16;;;;;;;5.50;2.80;;;;;;;20.20;69.29;98277.28;8413541;28;20199;-69
2021/07/08 00:31:20;;;;;;;4.93;2.80;;;;;;;20.28;69.13;98274.91;8413916;28;20199;-69
2021/07/08 00:35:23;;;;;;;8.00;2.93;;;;;;;20.43;68.43;98278.94;8413666;28;20592;-69
2021/07/08 00:39:27;;;;;;;5.70;3.17;;;;;;;20.45;68.23;98265.69;8413581;28;20222;-69
2021/07/08 00:43:31;;;;;;;6.80;3.10;;;;;;;20.48;67.75;98270.66;8413174;28;20227;-69
2021/07/08 00:47:35;;;;;;;11.37;3.30;;;;;;;20.48;68.11;98262.78;8413744;28;20276;-69
2021/07/08 00:51:38;;;;;;;8.93;3.47;;;;;;;20.51;68.22;98257.28;8414170;28;20207;-69
2021/07/08 00:55:44;;;;;;;6.47;2.80;;;;;;;20.50;68.09;98258.22;8414305;28;20214;-69
2021/07/08 00:59:52;;;;;;;8.03;3.13;;;;;;;20.47;67.85;98247.97;8421284;28;20209;-69
2021/07/08 01:03:55;;;;;;;9.10;3.07;;;;;;;20.42;68.20;98256.22;8421588;28;20231;-69
2021/07/08 01:07:59;;;;;;;6.23;3.20;;;;;;;20.42;68.12;98252.75;8421304;28;20224;-69
2021/07/08 01:12:02;;;;;;;8.03;3.10;;;;;;;20.40;67.83;98263.41;8420773;28;20210;-69
2021/07/08 01:16:06;;;;;;;7.83;3.23;;;;;;;20.42;67.75;98256.22;8420143;28;20235;-69
2021/07/08 01:20:10;;;;;;;4.03;2.83;;;;;;;20.44;67.72;98261.34;8420241;28;20206;-69
2021/07/08 01:24:15;;;;;;;7.83;3.00;;;;;;;20.47;67.64;98258.50;8419881;28;20236;-69
2021/07/08 01:28:17;;;;;;;8.00;3.30;;;;;;;20.33;68.05;98264.84;8419582;28;20386;-69
2021/07/08 01:32:20;;;;;;;10.07;3.20;;;;;;;20.42;67.34;98271.16;8419797;28;20215;-69
2021/07/08 01:36:23;;;;;;;10.97;3.00;;;;;;;20.43;67.74;98273.69;8419597;28;20209;-69
2021/07/08 01:40:27;;;;;;;7.80;3.43;;;;;;;20.42;67.77;98258.84;8419461;28;20218;-69
2021/07/08 01:44:30;;;;;;;10.13;3.63;;;;;;;20.35;68.22;98236.63;8419107;28;20227;-69
2021/07/08 01:48:34;;;;;;;8.50;3.27;;;;;;;20.34;68.46;98234.97;8419342;28;20224;-69
2021/07/08 01:52:36;;;;;;;6.60;2.90;;;;;;;20.38;68.17;98240.81;8418945;28;20199;-69
2021/07/08 01:56:41;;;;;;;8.87;3.30;;;;;;;20.42;67.76;98237.81;8419065;28;20207;-69
2021/07/08 02:00:44;;;;;;;10.70;3.30;;;;;;;20.43;68.03;98255.28;8418925;28;20280;-69
2021/07/08 02:04:46;;;;;;;10.47;3.00;;;;;;;20.36;68.02;98237.47;8418734;28;20223;-69
2021/07/08 02:08:50;;;;;;;10.13;3.27;;;;;;;20.34;68.37;98223.63;8417762;28;20219;-69
2021/07/08 02:12:54;;;;;;;10.57;3.20;;;;;;;20.24;68.58;98247.19;8418587;28;20351;-69
2021/07/08 02:16:58;;;;;;;9.67;3.33;;;;;;;20.34;68.12;98250.75;8418369;28;20618;-69
2021/07/08 02:21:00;;;;;;;7.13;3.07;;;;;;;20.34;67.83;98253.38;8418048;28;20204;-69
2021/07/08 02:25:05;;;;;;;11.93;3.57;;;;;;;20.31;68.12;98266.75;8418183;28;20246;-69
2021/07/08 02:29:09;;;;;;;7.93;3.33;;;;;;;20.30;68.01;98271.19;8417932;28;20232;-69
2021/07/08 02:33:12;;;;;;;10.07;3.40;;;;;;;20.22;68.71;98254.34;8417910;28;20201;-69
2021/07/08 02:37:16;;;;;;;8.83;3.27;;;;;;;20.10;68.69;98243.84;8417935;28;20380;-69
2021/07/08 02:41:19;;;;;;;12.80;3.60;;;;;;;20.17;68.05;98246.81;8416836;28;20218;-71
2021/07/08 02:45:25;;;;;;;6.90;3.10;;;;;;;20.23;68.33;98234.97;8416814;28;20223;-70
2021/07/08 02:49:28;;;;;;;9.60;3.40;;;;;;;20.24;67.84;98228.78;8416340;28;20210;-70
2021/07/08 02:53:30;;;;;;;9.13;3.40;;;;;;;20.19;68.31;98220.41;8415875;28;20211;-70
2021/07/08 02:57:33;;;;;;;9.10;3.07;;;;;;;20.18;68.48;98213.47;8415810;28;20216;-70
2021/07/08 03:01:38;;;;;;;5.87;2.90;;;;;;;20.17;68.29;98223.16;8415658;28;20195;-70
2021/07/08 03:05:40;;;;;;;6.23;3.10;;;;;;;20.14;68.44;98218.13;8415563;28;20236;-70
2021/07/08 03:09:43;;;;;;;7.30;2.80;;;;;;;20.12;68.26;98220.06;8415587;28;20203;-70
2021/07/08 03:13:46;;;;;;;8.43;2.80;;;;;;;20.11;68.11;98211.34;8415721;28;20199;-70
2021/07/08 03:17:51;;;;;;;6.53;3.33;;;;;;;20.08;67.98;98210.75;8415190;28;20195;-70
2021/07/08 03:21:54;;;;;;;6.33;3.13;;;;;;;20.14;67.96;98210.25;8414317;28;20207;-70
2021/07/08 03:25:56;;;;;;;8.37;3.37;;;;;;;20.13;67.79;98208.59;8415202;28;20237;-70
2021/07/08 03:29:59;;;;;;;8.13;3.40;;;;;;;20.15;67.77;98205.84;8414721;28;20246;-69
2021/07/08 03:34:03;;;;;;;10.20;2.97;;;;;;;20.13;67.77;98207.75;8414651;28;20218;-69
2021/07/08 03:38:06;;;;;;;8.77;3.00;;;;;;;20.14;67.54;98198.91;8414436;28;20207;-70
2021/07/08 03:42:09;;;;;;;6.80;3.23;;;;;;;20.15;67.68;98203.22;8414421;28;20206;-70
2021/07/08 03:46:12;;;;;;;6.40;3.40;;;;;;;20.05;67.93;98216.25;8414417;28;20241;-70
2021/07/08 03:50:17;;;;;;;6.97;3.30;;;;;;;20.07;68.00;98215.19;8414507;28;20207;-70
2021/07/08 03:54:20;;;;;;;6.83;3.90;;;;;;;20.10;67.72;98216.72;8414531;28;20416;-71
2021/07/08 03:58:22;;;;;;;7.13;3.57;;;;;;;20.07;68.30;98232.75;8413796;28;20199;-71
2021/07/08 04:02:25;;;;;;;8.33;3.40;;;;;;;20.10;67.76;98235.13;8413933;28;20389;-71
2021/07/08 04:06:30;;;;;;;8.30;3.53;;;;;;;20.12;68.01;98227.94;8413913;28;20242;-70
2021/07/08 04:10:36;;;;;;;14.43;4.00;;;;;;;20.14;68.15;98233.09;8414149;28;20386;-70
2021/07/08 04:14:39;;;;;;;6.17;3.50;;;;;;;20.05;68.23;98238.13;8410302;28;20206;-70
2021/07/08 04:18:41;;;;;;;9.50;3.17;;;;;;;20.22;67.85;98241.19;8396319;28;20301;-70
2021/07/08 04:22:46;;;;;;;7.07;3.20;;;;;;;20.21;67.75;98236.91;8397590;28;20192;-69
2021/07/08 04:26:49;;;;;;;5.93;3.00;;;;;;;20.19;67.44;98237.00;8383223;28;20329;-70
2021/07/08 04:30:52;;;;;;;8.03;3.30;;;;;;;20.02;68.29;98227.84;8379995;28;20523;-69
2021/07/08 04:34:55;;;;;;;5.43;3.50;;;;;;;19.87;69.01;98219.34;8380116;28;20208;-69
2021/07/08 04:38:59;;;;;;;7.77;3.23;;;;;;;20.10;69.14;98212.31;8408157;28;20395;-69
2021/07/08 04:43:02;;;;;;;14.77;3.83;;;;;;;20.01;69.21;98226.19;8401984;28;20517;-69
2021/07/08 04:47:06;;;;;;;9.67;3.67;;;;;;;19.86;69.62;98230.84;8388066;28;20224;-69
2021/07/08 04:51:08;;;;;;;8.83;4.00;;;;;;;19.76;69.90;98242.19;8394052;28;20496;-69
2021/07/08 04:55:14;;;;;;;6.13;4.80;;;;;;;19.86;69.92;98253.66;8394994;28;20205;-69
2021/07/08 04:59:17;;;;;;;5.57;3.50;;;;;;;20.11;69.27;98261.28;8393468;28;20502;-69
2021/07/08 05:03:19;;;;;;;11.03;3.60;;;;;;;20.15;69.09;98261.06;8397319;28;20199;-69
2021/07/08 05:07:22;;;;;;;7.97;3.40;;;;;;;20.14;69.86;98265.47;8406924;28;20233;-69
2021/07/08 05:11:26;;;;;;;13.60;3.80;;;;;;;20.07;69.53;98261.66;8379710;28;20196;-68
2021/07/08 05:15:29;;;;;;;8.87;3.60;;;;;;;20.16;69.65;98271.44;8379646;28;20397;-69
2021/07/08 05:19:32;;;;;;;6.53;3.50;;;;;;;20.17;69.30;98265.22;8379088;28;20502;-69
2021/07/08 05:23:36;;;;;;;12.53;3.10;;;;;;;20.41;69.32;98258.97;8379476;28;20197;-70
2021/07/08 05:27:40;;;;;;;9.77;3.03;;;;;;;20.61;68.31;98273.19;8378717;28;20249;-73
2021/07/08 05:31:43;;;;;;;8.70;3.23;;;;;;;20.53;68.19;98268.50;8380041;28;20712;-69
2021/07/08 05:35:46;;;;;;;10.93;3.23;;;;;;;20.29;69.22;98258.16;8379344;28;20235;-69
2021/07/08 05:39:48;;;;;;;5.73;3.70;;;;;;;20.37;69.24;98253.13;8379660;28;20208;-69
2021/07/08 05:43:53;;;;;;;7.40;3.37;;;;;;;20.22;69.78;98247.31;8399362;28;20282;-69
2021/07/08 05:47:55;;;;;;;7.20;3.60;;;;;;;20.26;70.57;98259.25;8418211;28;20536;-69
2021/07/08 05:51:58;;;;;;;9.07;4.40;;;;;;;20.37;70.29;98257.53;8417977;28;20219;-69
2021/07/08 05:56:01;;;;;;;7.10;3.40;;;;;;;20.48;70.22;98268.03;8417806;28;20221;-69
2021/07/08 06:00:07;;;;;;;6.33;3.33;;;;;;;20.47;70.44;98266.38;8417758;28;20198;-69
2021/07/08 06:04:09;;;;;;;5.50;3.40;;;;;;;20.40;70.67;98268.66;8417692;28;20380;-69
2021/07/08 06:08:12;;;;;;;6.70;3.57;;;;;;;20.29;70.65;98277.38;8417526;28;20556;-69
2021/07/08 06:12:15;;;;;;;6.43;3.37;;;;;;;20.46;70.35;98296.25;8417692;28;20203;-69
2021/07/08 06:16:19;;;;;;;4.23;3.27;;;;;;;20.48;70.41;98305.69;8417586;28;20506;-68
2021/07/08 06:20:22;;;;;;;6.93;3.40;;;;;;;20.38;70.78;98301.31;8417452;28;20498;-69
2021/07/08 06:24:25;;;;;;;6.97;3.57;;;;;;;20.35;70.50;98307.63;8417190;28;20205;-68
2021/07/08 06:28:28;;;;;;;7.43;3.20;;;;;;;20.37;70.59;98311.00;8394398;28;20253;-69
2021/07/08 06:32:32;;;;;;;7.47;3.80;;;;;;;20.35;70.77;98309.44;8417110;28;20206;-68
2021/07/08 06:36:35;;;;;;;6.17;3.90;;;;;;;20.36;70.40;98309.31;8417086;28;20210;-69
2021/07/08 06:40:38;;;;;;;5.00;3.70;;;;;;;20.34;70.61;98303.34;8417374;28;20498;-68
2021/07/08 06:44:40;;;;;;;8.73;3.93;;;;;;;20.32;71.07;98302.63;8407820;28;20475;-69
2021/07/08 06:48:46;;;;;;;5.17;3.00;;;;;;;20.25;71.27;98285.66;8399047;28;20218;-68
2021/07/08 06:52:49;;;;;;;7.47;2.90;;;;;;;20.33;71.04;98278.00;8400189;28;20195;-68
2021/07/08 06:56:52;;;;;;;6.70;3.67;;;;;;;20.23;71.80;98285.78;8415372;28;20199;-68
2021/07/08 07:00:55;;;;;;;5.93;3.00;;;;;;;20.45;71.35;98307.75;8417226;28;20344;-68
2021/07/08 07:04:59;;;;;;;5.30;3.37;;;;;;;20.58;71.07;98310.22;8405719;28;20222;-69
2021/07/08 07:09:02;;;;;;;6.67;3.30;;;;;;;20.53;71.63;98315.88;8416897;28;20234;-67
2021/07/08 07:13:11;;;;;;;3.60;3.30;;;;;;;20.53;71.46;98307.97;8416891;28;20199;-67
2021/07/08 07:17:14;;;;;;;7.47;3.43;;;;;;;20.51;71.44;98308.09;8416447;28;20252;-67
2021/07/08 07:21:18;;;;;;;5.53;3.00;;;;;;;20.54;71.42;98314.88;8416109;28;20203;-67
2021/07/08 07:25:22;;;;;;;6.50;3.13;;;;;;;20.44;71.75;98312.16;8416145;28;20199;-67
2021/07/08 07:29:25;;;;;;;5.67;3.10;;;;;;;20.49;71.10;98314.44;8416036;28;20227;-67
2021/07/08 07:33:28;;;;;;;4.77;2.87;;;;;;;20.58;71.33;98310.22;8416012;28;20203;-67
2021/07/08 07:37:33;;;;;;;4.97;3.23;;;;;;;20.37;71.50;98302.25;8415813;28;20210;-67
2021/07/08 07:41:35;;;;;;;3.93;3.10;;;;;;;20.24;72.36;98300.59;8399147;28;20508;-67
2021/07/08 07:45:40;;;;;;;7.27;3.07;;;;;;;20.27;72.81;98297.72;8381768;28;20196;-67
2021/07/08 07:49:44;;;;;;;3.37;2.87;;;;;;;20.34;72.46;98295.44;8382196;28;20207;-67
2021/07/08 07:53:48;;;;;;;3.53;2.63;;;;;;;20.41;72.21;98282.63;8381707;28;20227;-68
2021/07/08 07:57:50;;;;;;;6.30;2.40;;;;;;;20.59;71.92;98281.16;8381620;28;20215;-67
2021/07/08 08:01:54;;;;;;;5.70;2.90;;;;;;;20.59;71.80;98293.50;8386682;28;20493;-68
2021/07/08 08:10:20;;;;;;;2.90;2.20;;;;;;;20.88;70.39;98289.34;8381190;28;20202;-73
2021/07/08 08:14:22;;;;;;;4.17;2.07;;;;;;;21.11;69.86;98270.84;8381386;28;20206;-75
2021/07/08 08:18:25;;;;;;;4.27;2.97;;;;;;;21.09;70.97;98271.00;8381297;28;20204;-74
2021/07/08 08:22:29;;;;;;;4.30;2.50;;;;;;;21.03;70.18;98271.47;8391948;28;20199;-76
2021/07/08 08:26:33;;;;;;;2.97;2.30;;;;;;;21.21;68.91;98277.03;8397308;28;20220;-76
2021/07/08 08:30:36;;;;;;;5.40;2.17;;;;;;;21.40;68.63;98271.06;8408203;28;20231;-76
2021/07/08 08:34:39;;;;;;;3.93;2.63;;;;;;;21.19;70.44;98262.28;8413741;28;20388;-82
2021/07/08 08:38:42;;;;;;;7.53;2.53;;;;;;;21.35;70.38;98257.44;8381561;28;20459;-78
2021/07/08 08:42:47;;;;;;;3.60;2.33;;;;;;;21.60;70.12;98269.38;8390714;28;20197;-78
2021/07/08 08:46:52;;;;;;;2.63;2.20;;;;;;;21.64;69.07;98285.78;8415163;28;20261;-76
2021/07/08 08:50:54;;;;;;;5.07;2.23;;;;;;;21.58;69.92;98258.16;8415077;28;20202;-76
2021/07/08 08:54:59;;;;;;;2.37;1.70;;;;;;;21.87;69.69;98278.53;8414686;28;20217;-78
2021/07/08 08:59:03;;;;;;;4.53;1.90;;;;;;;21.94;69.00;98279.69;8415180;28;20206;-81
2021/07/08 09:03:07;;;;;;;4.43;1.90;;;;;;;22.18;68.38;98283.78;8415286;28;20203;-80
2021/07/08 09:07:21;;;;;;;8.90;1.70;;;;;;;22.40;67.80;98301.25;8414755;28;20354;-77
2021/07/08 09:11:26;;;;;;;4.73;1.93;;;;;;;22.24;68.67;98292.03;8414804;28;20366;-77
2021/07/08 09:15:31;;;;;;;2.47;1.60;;;;;;;22.17;67.80;98298.78;8414512;28;20202;-78
2021/07/08 09:19:37;;;;;;;1.70;1.40;;;;;;;22.05;67.72;98291.97;8417601;28;20202;-75
2021/07/08 09:23:39;;;;;;;2.00;1.20;;;;;;;22.16;68.06;98293.63;8421028;28;20202;-77
2021/07/08 09:27:42;;;;;;;3.63;1.70;;;;;;;22.17;68.24;98274.22;8420442;28;20246;-82
2021/07/08 09:31:50;;;;;;;3.07;1.57;;;;;;;22.33;68.49;98258.78;8420729;28;20202;-79
2021/07/08 09:36:04;;;;;;;3.30;1.40;;;;;;;22.25;68.05;98253.31;8413508;28;20474;-74
2021/07/08 09:40:08;;;;;;;1.77;1.57;;;;;;;22.53;67.40;98267.53;8387057;28;20218;-68
2021/07/08 09:44:20;;;;;;;2.50;1.30;;;;;;;22.75;66.21;98273.53;8386519;28;20211;-69
2021/07/08 09:48:24;;;;;;;3.00;1.53;;;;;;;22.95;65.92;98283.13;8386449;28;20230;-69
2021/07/08 09:52:27;;;;;;;2.20;1.33;;;;;;;22.65;63.95;98295.47;8386087;28;20206;-68
2021/07/08 09:56:48;;;;;;;1.70;1.30;;;;;;;22.49;61.55;98289.91;8385992;28;20326;-69
2021/07/08 10:00:51;;;;;;;1.97;1.30;;;;;;;22.32;62.59;98282.63;8385861;28;20487;-67
2021/07/08 10:04:55;;;;;;;2.37;1.20;;;;;;;22.70;65.83;98275.78;8385767;28;20200;-69
2021/07/08 10:08:58;;;;;;;2.43;1.40;;;;;;;22.83;65.52;98276.34;8385591;28;20227;-69
2021/07/08 10:13:01;;;;;;;1.93;1.43;;;;;;;22.81;63.87;98279.09;8386192;28;20199;-69
2021/07/08 10:17:05;;;;;;;1.97;1.47;;;;;;;23.12;64.05;98263.16;8385674;28;20274;-69
2021/07/08 10:21:09;;;;;;;1.50;1.40;;;;;;;23.09;64.01;98258.13;8385372;28;20200;-69
2021/07/08 10:25:14;;;;;;;5.33;1.73;;;;;;;23.33;63.88;98264.81;8385130;28;20208;-68
2021/07/08 10:29:17;;;;;;;4.97;1.80;;;;;;;23.58;61.11;98266.00;8384481;28;20242;-74
2021/07/08 10:33:20;;;;;;;4.00;1.60;;;;;;;24.18;60.63;98255.91;8385205;28;20390;-75
2021/07/08 10:37:32;;;;;;;8.37;2.53;;;;;;;24.11;60.35;98260.13;8384512;28;20211;-75
2021/07/08 10:41:55;;;;;;;2.77;1.63;;;;;;;24.03;60.59;98262.69;8384914;28;20372;-73
2021/07/08 10:46:02;;;;;;;4.97;1.70;;;;;;;24.00;59.77;98262.97;8414160;28;20196;-73
2021/07/08 10:50:08;;;;;;;3.73;1.67;;;;;;;23.83;61.23;98261.91;8417435;28;20226;-72
2021/07/08 10:54:26;;;;;;;4.70;1.60;;;;;;;23.60;61.98;98254.28;8416874;28;20207;-74
2021/07/08 10:58:43;;;;;;;5.67;1.50;;;;;;;23.81;60.37;98256.75;8416281;28;20223;-74
2021/07/08 11:02:47;;;;;;;3.40;1.60;;;;;;;23.61;60.63;98265.72;8417028;28;20200;-75
2021/07/08 11:06:50;;;;;;;3.87;1.70;;;;;;;23.47;60.25;98280.19;8416066;28;20219;-75
2021/07/08 11:10:54;;;;;;;2.03;1.50;;;;;;;23.27;62.02;98262.72;8415986;28;20203;-78
2021/07/08 11:14:58;;;;;;;2.53;1.50;;;;;;;23.23;62.14;98249.78;8416961;28;20199;-79
2021/07/08 11:19:01;;;;;;;2.77;1.57;;;;;;;23.19;61.47;98235.22;8416768;28;20203;-76
2021/07/08 11:23:39;;;;;;;2.30;1.60;;;;;;;23.19;62.04;98221.19;8416025;28;20207;-76
2021/07/08 11:27:45;;;;;;;3.63;1.70;;;;;;;23.19;62.21;98203.50;8414998;28;20273;-74
2021/07/08 11:31:48;;;;;;;3.57;1.57;;;;;;;23.19;61.84;98178.91;8415861;28;20252;-76
2021/07/08 11:35:56;;;;;;;3.13;1.70;;;;;;;23.65;61.28;98157.88;8416254;28;20233;-76
2021/07/08 11:40:01;;;;;;;3.53;1.40;;;;;;;23.73;61.46;98179.13;8410250;28;20238;-75
2021/07/08 11:44:06;;;;;;;1.90;1.70;;;;;;;23.55;61.18;98181.69;8395212;28;20199;-76
2021/07/08 11:48:09;;;;;;;2.37;1.80;;;;;;;23.58;60.90;98207.84;8381951;28;20238;-75
2021/07/08 11:52:26;;;;;;;3.30;2.03;;;;;;;23.75;60.14;98216.84;8381744;28;20207;-74
2021/07/08 11:56:29;;;;;;;1.63;1.53;;;;;;;23.56;62.06;98245.00;8391667;28;20360;-76
2021/07/08 12:00:35;;;;;;;2.77;1.70;;;;;;;23.34;60.90;98264.66;8380978;28;20204;-73
2021/07/08 12:04:38;;;;;;;1.70;1.60;;;;;;;23.05;62.35;98269.97;8380352;28;20487;-73
2021/07/08 12:08:43;;;;;;;2.40;1.60;;;;;;;22.82;62.99;98264.09;8380479;28;20370;-74
2021/07/08 12:12:46;;;;;;;2.90;1.67;;;;;;;22.89;62.14;98262.56;8380636;28;20200;-74
2021/07/08 12:16:54;;;;;;;3.27;1.77;;;;;;;22.80;63.33;98288.00;8394804;28;20222;-74
2021/07/08 12:20:57;;;;;;;2.10;1.70;;;;;;;22.67;63.58;98282.13;8396665;28;20195;-75
2021/07/08 12:25:00;;;;;;;2.27;1.70;;;;;;;22.61;63.32;98266.84;8396880;28;20201;-74
2021/07/08 12:29:17;;;;;;;2.40;1.50;;;;;;;22.67;62.65;98265.47;8392826;28;20465;-74
2021/07/08 12:33:21;;;;;;;2.57;1.63;;;;;;;22.65;63.03;98247.13;8395207;28;20200;-73
2021/07/08 12:37:27;;;;;;;2.53;1.70;;;;;;;22.80;62.40;98255.47;8395193;28;20256;-76
2021/07/08 12:41:30;;;;;;;2.13;1.50;;;;;;;22.76;62.30;98278.69;8396480;28;20210;-74
2021/07/08 12:45:33;;;;;;;2.00;1.70;;;;;;;22.76;62.12;98267.28;8396320;28;20195;-74
2021/07/08 12:49:37;;;;;;;2.77;1.70;;;;;;;22.75;62.19;98260.34;8394455;28;20444;-74
2021/07/08 12:53:43;;;;;;;4.33;2.00;;;;;;;22.59;63.16;98259.06;8399523;28;20202;-74
2021/07/08 12:57:46;;;;;;;4.93;1.93;;;;;;;22.55;63.00;98249.75;8402959;28;20196;-75
2021/07/08 13:01:53;;;;;;;3.73;1.90;;;;;;;22.65;62.23;98260.31;8402783;28;20516;-74
2021/07/08 13:06:11;;;;;;;6.03;2.20;;;;;;;22.57;62.04;98260.19;8385993;28;20223;-73
2021/07/08 13:10:14;;;;;;;4.60;1.73;;;;;;;22.58;62.49;98246.88;8391001;28;20223;-74
2021/07/08 13:14:17;;;;;;;2.10;1.90;;;;;;;22.67;63.28;98260.19;8398032;28;20195;-74
2021/07/08 13:18:27;;;;;;;2.37;1.83;;;;;;;22.67;63.88;98261.03;8402730;28;20199;-76
2021/07/08 13:22:40;;;;;;;4.20;1.97;;;;;;;22.78;63.54;98239.78;8401016;28;20194;-74
2021/07/08 13:26:46;;;;;;;5.80;1.93;;;;;;;22.92;62.91;98237.69;8384934;28;20203;-73
2021/07/08 13:31:10;;;;;;;4.17;2.03;;;;;;;22.99;62.46;98249.38;8384895;28;20235;-72
2021/07/08 13:35:13;;;;;;;3.20;2.10;;;;;;;22.87;63.10;98245.22;8386331;28;20401;-73
2021/07/08 13:39:17;;;;;;;3.40;1.87;;;;;;;22.91;61.98;98242.16;8418970;28;20520;-75
2021/07/08 13:43:20;;;;;;;3.93;2.00;;;;;;;22.98;62.25;98242.41;8418990;28;20202;-74
2021/07/08 13:47:26;;;;;;;3.53;1.90;;;;;;;23.01;61.67;98247.41;8418795;28;20209;-76
2021/07/08 13:51:28;;;;;;;3.40;2.10;;;;;;;22.85;61.81;98226.88;8419345;28;20222;-79
2021/07/08 13:55:33;;;;;;;3.37;2.00;;;;;;;22.88;61.46;98213.38;8418607;28;20509;-75
2021/07/08 13:59:36;;;;;;;2.83;2.10;;;;;;;22.81;61.70;98193.81;8418217;28;20203;-73
2021/07/08 14:03:39;;;;;;;2.40;2.20;;;;;;;22.80;60.74;98173.63;8417175;28;20521;-73
2021/07/08 14:07:42;;;;;;;2.80;2.37;;;;;;;22.58;62.09;98182.66;8417828;28;20223;-73
2021/07/08 14:11:46;;;;;;;4.77;2.53;;;;;;;22.44;62.20;98166.28;8417489;28;20203;-73
2021/07/08 14:15:49;;;;;;;6.13;2.60;;;;;;;22.57;62.07;98168.66;8413287;28;20203;-74
2021/07/08 14:19:52;;;;;;;4.23;3.00;;;;;;;22.59;62.39;98163.22;8396059;28;20208;-74
2021/07/08 14:23:55;;;;;;;5.13;3.20;;;;;;;22.57;61.56;98170.47;8397126;28;20198;-74
2021/07/08 14:27:59;;;;;;;4.80;3.00;;;;;;;22.59;61.96;98177.25;8399238;28;20440;-74
2021/07/08 14:32:02;;;;;;;7.03;3.60;;;;;;;22.51;61.81;98171.84;8397537;28;20213;-74
2021/07/08 14:36:06;;;;;;;4.63;3.40;;;;;;;22.44;60.90;98154.91;8404419;28;20389;-81
2021/07/08 14:40:11;;;;;;;6.33;3.70;;;;;;;22.37;60.58;98116.84;8398893;28;20448;-66
2021/07/08 14:44:21;;;;;;;3.13;2.80;;;;;;;22.40;60.25;98062.00;8383566;28;20203;-67
2021/07/08 14:48:24;;;;;;;5.00;3.20;;;;;;;22.28;61.47;98042.03;8389752;28;20238;-68
2021/07/08 14:52:27;;;;;;;5.50;3.10;;;;;;;22.24;61.92;98065.19;8391677;28;20218;-67
2021/07/08 14:56:30;;;;;;;3.50;3.20;;;;;;;22.47;61.74;98101.03;8400615;28;20195;-68
2021/07/08 15:00:34;;;;;;;4.07;3.50;;;;;;;22.49;61.98;98085.88;8403594;28;20203;-68
2021/07/08 15:04:37;;;;;;;3.30;3.00;;;;;;;22.62;62.19;98054.75;8402336;28;20201;-68
2021/07/08 15:08:40;;;;;;;4.30;3.90;;;;;;;22.62;62.62;98055.59;8402639;28;20291;-68
2021/07/08 15:12:43;;;;;;;3.60;3.20;;;;;;;22.83;62.19;98094.16;8405921;28;20195;-67
2021/07/08 15:16:47;;;;;;;4.40;4.00;;;;;;;22.90;62.24;98073.28;8406308;28;20195;-68
2021/07/08 15:20:50;;;;;;;10.47;4.00;;;;;;;22.82;62.06;98080.09;8401047;28;20203;-67
2021/07/08 15:24:53;;;;;;;3.53;3.23;;;;;;;23.02;61.94;98032.53;8408655;28;20198;-68
2021/07/08 15:28:56;;;;;;;5.17;3.47;;;;;;;23.16;62.51;98016.22;8406795;28;20253;-67
2021/07/08 15:33:04;;;;;;;5.77;3.13;;;;;;;23.20;61.18;98017.59;8403789;28;20194;-67
2021/07/08 15:37:07;;;;;;;3.43;3.00;;;;;;;23.26;60.75;98007.44;8411251;28;20318;-68
2021/07/08 15:41:09;;;;;;;4.90;3.13;;;;;;;23.26;60.36;98004.78;8406608;28;20199;-67
2021/07/08 15:45:13;;;;;;;5.77;3.17;;;;;;;23.50;60.20;98009.53;8405469;28;20416;-67
2021/07/08 15:49:17;;;;;;;4.33;3.17;;;;;;;23.65;59.31;98025.72;8407673;28;20440;-68
2021/07/08 15:53:41;;;;;;;3.60;2.90;;;;;;;23.70;59.12;98063.09;8401691;28;20187;-67
2021/07/08 15:57:44;;;;;;;3.03;2.47;;;;;;;23.51;57.77;98088.63;8410200;28;20232;-69
2021/07/08 16:01:47;;;;;;;3.10;2.80;;;;;;;23.52;58.33;98095.59;8400573;28;20195;-67
2021/07/08 16:05:51;;;;;;;3.30;2.80;;;;;;;23.40;58.82;98073.84;8399354;28;20228;-69
2021/07/08 16:09:54;;;;;;;3.77;2.97;;;;;;;23.51;58.78;98058.75;8406106;28;20220;-67
2021/07/08 16:13:56;;;;;;;9.90;3.03;;;;;;;23.45;59.91;98075.19;8400791;28;20201;-68
2021/07/08 16:18:00;;;;;;;5.13;3.03;;;;;;;23.19;58.36;98097.03;8406080;28;20392;-69
2021/07/08 16:22:04;;;;;;;5.33;3.10;;;;;;;23.25;59.32;98100.84;8407810;28;20207;-74
2021/07/08 16:26:07;;;;;;;6.90;3.20;;;;;;;23.22;59.75;98094.88;8402894;28;20191;-75
2021/07/08 16:30:14;;;;;;;7.03;2.93;;;;;;;23.22;59.84;98102.81;8400690;28;20242;-75
2021/07/08 16:34:16;;;;;;;12.17;3.20;;;;;;;23.21;60.04;98118.84;8395098;28;20423;-73
2021/07/08 16:38:22;;;;;;;3.53;3.23;;;;;;;23.27;59.52;98123.53;8396078;28;20456;-77
2021/07/08 16:42:25;;;;;;;3.80;2.63;;;;;;;23.33;59.68;98124.78;8396503;28;20195;-75
2021/07/08 16:46:27;;;;;;;3.73;2.70;;;;;;;23.27;59.85;98128.81;8395255;28;20192;-75
2021/07/08 16:50:31;;;;;;;10.03;3.10;;;;;;;23.28;60.11;98116.44;8393174;28;20235;-74
2021/07/08 16:54:45;;;;;;;5.53;3.10;;;;;;;23.36;59.44;98121.81;8397384;28;20192;-74
2021/07/08 16:58:48;;;;;;;5.27;2.70;;;;;;;23.32;59.98;98146.88;8393502;28;20198;-75
2021/07/08 17:02:51;;;;;;;7.00;2.97;;;;;;;23.23;59.67;98138.84;8393213;28;20210;-74
2021/07/08 17:06:55;;;;;;;6.30;2.93;;;;;;;23.31;59.23;98130.19;8395627;28;20242;-72
2021/07/08 17:10:59;;;;;;;3.87;2.80;;;;;;;23.09;59.13;98131.34;8395382;28;20230;-77
2021/07/08 17:15:03;;;;;;;8.03;2.97;;;;;;;23.00;59.98;98151.53;8396228;28;20292;-81
2021/07/08 17:19:06;;;;;;;5.63;3.03;;;;;;;22.86;59.67;98164.31;8392506;28;20367;-76
2021/07/08 17:23:09;;;;;;;6.00;3.37;;;;;;;22.68;60.53;98159.75;8395178;28;20198;-76
2021/07/08 17:27:13;;;;;;;3.10;2.80;;;;;;;22.73;60.38;98151.41;8410008;28;20195;-75
2021/07/08 17:31:16;;;;;;;3.87;2.80;;;;;;;22.58;61.31;98158.91;8412588;28;20238;-75
2021/07/08 17:35:19;;;;;;;3.20;2.90;;;;;;;22.32;61.81;98148.09;8412534;28;20203;-75
2021/07/08 17:39:22;;;;;;;4.00;3.60;;;;;;;22.28;62.37;98170.44;8413912;28;20209;-75
2021/07/08 17:43:26;;;;;;;4.70;3.20;;;;;;;22.27;62.35;98161.69;8419196;28;20230;-76
2021/07/08 17:47:29;;;;;;;4.60;3.30;;;;;;;22.38;61.86;98161.56;8409911;28;20499;-76
2021/07/08 17:51:32;;;;;;;5.20;3.80;;;;;;;22.49;61.61;98154.50;8412774;28;20225;-75
2021/07/08 17:55:35;;;;;;;5.57;3.10;;;;;;;22.58;61.40;98141.28;8418158;28;20393;-75
2021/07/08 17:59:39;;;;;;;10.10;3.53;;;;;;;22.51;61.74;98120.88;8418034;28;20490;-76
2021/07/08 18:04:01;;;;;;;6.13;2.77;;;;;;;22.53;60.99;98100.47;8417957;28;20198;-75
2021/07/08 18:08:04;;;;;;;3.67;2.53;;;;;;;22.61;61.86;98087.38;8417946;28;20229;-77
2021/07/08 18:12:08;;;;;;;7.30;3.20;;;;;;;22.61;61.60;98096.13;8418318;28;20390;-77
2021/07/08 18:16:12;;;;;;;8.40;3.90;;;;;;;22.50;62.92;98080.44;8417886;28;20203;-76
2021/07/08 18:20:16;;;;;;;8.97;3.93;;;;;;;22.53;62.76;98084.63;8418415;28;20228;-77
2021/07/08 18:24:19;;;;;;;10.53;4.00;;;;;;;22.52;62.99;98089.06;8418439;28;20203;-77
2021/07/08 18:28:23;;;;;;;7.50;3.67;;;;;;;22.45;63.28;98080.06;8418186;28;20310;-77
2021/07/08 18:32:28;;;;;;;10.17;3.60;;;;;;;22.46;63.66;98073.78;8410788;28;20226;-76
2021/07/08 18:36:30;;;;;;;7.13;2.70;;;;;;;22.40;64.49;98080.47;8402413;28;20202;-67
2021/07/08 18:40:34;;;;;;;6.03;2.90;;;;;;;22.23;65.86;98081.97;8415012;28;20504;-68
2021/07/08 18:44:36;;;;;;;6.13;3.13;;;;;;;22.25;65.85;98089.78;8408938;28;20203;-68
2021/07/08 18:48:43;;;;;;;3.00;2.70;;;;;;;22.25;66.12;98069.50;8406696;28;20206;-67
2021/07/08 18:52:46;;;;;;;6.00;3.00;;;;;;;22.15;66.66;98092.38;8403918;28;20226;-67
2021/07/08 18:56:49;;;;;;;6.00;3.10;;;;;;;22.15;66.37;98097.66;8397181;28;20195;-70
2021/07/08 19:00:52;;;;;;;14.50;3.80;;;;;;;22.14;66.21;98097.78;8403151;28;20203;-67
2021/07/08 19:04:56;;;;;;;4.73;3.20;;;;;;;22.11;66.04;98090.16;8405305;28;20206;-67
2021/07/08 19:08:59;;;;;;;7.27;3.10;;;;;;;22.09;66.43;98065.75;8403110;28;20205;-67
2021/07/08 19:13:02;;;;;;;3.87;2.90;;;;;;;22.11;66.30;98075.16;8413881;28;20225;-68